RPVD

Sibulan Airport

Dumaguete City, Philippines
TAF RPVD 251700Z 2518/2618 04006KT 9999 FEW015 SCT080 TEMPO 2518/2524 FEW014CB FEW015 BKN080
Issued Valid From Valid To
Apr-25 @ 17:00 UTC
(an hour ago)
Apr-25 @ 18:00 UTC
(22 minutes ago)
Apr-26 @ 18:00 UTC
(in 24 hours)
Apr-25 @ 18:00 to Apr-26 @ 18:00
TAF RPVD 251700Z 2518/2618 04006KT 9999 FEW015 SCT080
Wind Visibility Clouds
40° at 6 knots 10,000+ meters
  • Few at 1,500' AGL
  • Scattered at 8,000' AGL
Temporary Apr-25 @ 18:00 to Apr-26 @ 00:00
TEMPO 2518/2524 FEW014CB FEW015 BKN080
Clouds
  • Few at 1,400' AGL
  • Few at 1,500' AGL
  • Broken at 8,000' AGL
TAF RPVD 251700Z 2518/2618 04006KT 9999 FEW015 SCT080 TEMPO 2518/2524 FEW014CB FEW015 BKN080
Issued Apr-25 @ 17:00 UTC
(an hour ago)
Valid From Apr-25 @ 18:00 UTC
(22 minutes ago)
Valid To Apr-26 @ 18:00 UTC
(in 24 hours)
Apr-25 @ 18:00 - Apr-26 @ 18:00
Wind Visibility
40° at 6 knots 10,000+ meters
Clouds
  • Few at 1,500' AGL
  • Scattered at 8,000' AGL
Temporary Apr-25 @ 18:00 - Apr-26 @ 00:00
Clouds
  • Few at 1,400' AGL
  • Few at 1,500' AGL
  • Broken at 8,000' AGL